Time;durP1;ratioP1;P1;durP2;ratioP2;P2;SDS_P1;SDS_P2;PMS_P1;PMS_P2;Temp;Humidity;BMP_temperature;BMP_pressure;BME280_temperature;BME280_humidity;BME280_pressure;Samples;Min_cycle;Max_cycle;Signal;HPM_P1;HPM_P2
2023/04/02 00:02:29;;;;;;;3.63;2.80;;;;;;;8.51;53.16;100383.38;5066507;28;20060;-78
2023/04/02 00:05:29;;;;;;;3.47;2.30;;;;;;;8.47;53.63;100387.41;5053093;28;20041;-80
2023/04/02 00:07:58;;;;;;;4.00;2.75;;;;;;;8.45;53.42;100389.38;5026928;28;20052;-81
2023/04/02 00:10:30;;;;;;;3.13;2.28;;;;;;;8.43;53.25;100387.78;5030153;28;20045;-79
2023/04/02 00:13:05;;;;;;;3.28;2.28;;;;;;;8.46;53.30;100398.44;5030415;28;20044;-81
2023/04/02 00:15:34;;;;;;;3.03;2.10;;;;;;;8.44;53.57;100409.47;5046497;28;20591;-80
2023/04/02 00:18:03;;;;;;;2.90;1.92;;;;;;;8.43;53.70;100406.88;5027023;28;20039;-80
2023/04/02 00:20:35;;;;;;;3.10;2.15;;;;;;;8.46;53.54;100412.06;5048425;28;20054;-79
2023/04/02 00:23:04;;;;;;;3.55;2.10;;;;;;;8.43;53.58;100428.69;5052781;28;20216;-81
2023/04/02 00:25:41;;;;;;;3.25;2.15;;;;;;;8.44;53.66;100431.28;5051988;28;20037;-79
2023/04/02 00:28:13;;;;;;;3.10;2.00;;;;;;;8.45;53.50;100427.56;5065536;28;20045;-81
2023/04/02 00:30:47;;;;;;;2.65;1.92;;;;;;;8.47;53.59;100438.34;5050709;28;20079;-80
2023/04/02 00:33:18;;;;;;;2.70;2.00;;;;;;;8.46;53.43;100444.78;5056761;28;20079;-80
2023/04/02 00:35:47;;;;;;;3.40;2.33;;;;;;;8.46;53.42;100442.06;5066044;28;20063;-79
2023/04/02 00:38:21;;;;;;;2.75;2.10;;;;;;;8.47;52.96;100452.84;5064750;28;20041;-80
2023/04/02 00:40:55;;;;;;;3.00;1.98;;;;;;;8.47;52.84;100454.72;5052214;28;20109;-82
2023/04/02 00:43:26;;;;;;;3.40;2.20;;;;;;;8.41;52.75;100466.16;5056111;28;20044;-82
2023/04/02 00:45:57;;;;;;;3.20;2.10;;;;;;;8.41;53.06;100460.69;5053962;28;20048;-81
2023/04/02 00:48:41;;;;;;;2.97;2.05;;;;;;;8.41;52.75;100468.88;5071520;28;20047;-80
2023/04/02 00:51:15;;;;;;;3.35;2.35;;;;;;;8.37;53.21;100473.72;5058068;28;20064;-78
2023/04/02 00:53:46;;;;;;;3.67;2.00;;;;;;;8.37;53.15;100476.44;5062162;28;20489;-79
2023/04/02 00:56:19;;;;;;;3.38;2.22;;;;;;;8.35;52.63;100478.41;5063778;28;20053;-79
2023/04/02 00:58:53;;;;;;;3.50;2.42;;;;;;;8.34;52.63;100487.63;5063560;28;20053;-79
2023/04/02 01:01:25;;;;;;;3.20;2.30;;;;;;;8.30;53.20;100491.59;5045797;28;20051;-80
2023/04/02 01:03:58;;;;;;;3.88;2.80;;;;;;;8.30;52.88;100494.31;5064187;28;20070;-80
2023/04/02 01:06:30;;;;;;;3.95;2.67;;;;;;;8.29;52.70;100500.75;5051980;28;20052;-78
2023/04/02 01:09:15;;;;;;;3.90;2.55;;;;;;;8.29;52.95;100501.63;5063636;28;20048;-79
2023/04/02 01:12:08;;;;;;;3.47;2.50;;;;;;;8.25;52.96;100496.56;5065112;28;20047;-79
2023/04/02 01:14:50;;;;;;;3.90;2.47;;;;;;;8.25;52.78;100505.63;5069993;28;20702;-78
2023/04/02 01:17:35;;;;;;;4.00;2.70;;;;;;;8.25;52.43;100507.47;5063787;28;20098;-78
2023/04/02 01:20:24;;;;;;;4.47;3.10;;;;;;;8.22;52.17;100518.63;5059494;28;20033;-79
2023/04/02 01:22:58;;;;;;;4.30;3.00;;;;;;;8.21;52.87;100522.34;5065722;28;20431;-79
2023/04/02 01:25:34;;;;;;;4.28;3.20;;;;;;;8.20;52.79;100523.31;5049412;28;20044;-79
2023/04/02 01:28:10;;;;;;;6.05;3.40;;;;;;;8.17;52.73;100529.91;5050208;28;20241;-79
2023/04/02 01:30:41;;;;;;;4.80;3.65;;;;;;;8.14;52.33;100532.88;5065471;28;20047;-80
2023/04/02 01:33:09;;;;;;;5.85;4.00;;;;;;;8.09;52.20;100526.06;5061917;28;20037;-79
2023/04/02 01:35:42;;;;;;;4.70;3.75;;;;;;;8.08;52.47;100541.53;5066109;28;20052;-79
2023/04/02 01:38:18;;;;;;;5.30;3.97;;;;;;;8.04;52.66;100545.50;5068017;28;20044;-80
2023/04/02 01:40:52;;;;;;;5.03;4.05;;;;;;;8.02;52.16;100549.34;5078149;28;20074;-80
2023/04/02 01:43:29;;;;;;;4.63;3.70;;;;;;;8.01;52.53;100547.63;5080721;28;20040;-81
2023/04/02 01:46:04;;;;;;;4.90;3.80;;;;;;;7.99;52.19;100553.19;5055820;28;20047;-79
2023/04/02 01:48:32;;;;;;;4.75;3.60;;;;;;;7.96;52.59;100559.75;5076005;28;20549;-79
2023/04/02 01:51:04;;;;;;;4.75;3.53;;;;;;;7.93;52.22;100560.00;5052688;28;20136;-79
2023/04/02 01:53:32;;;;;;;4.88;3.47;;;;;;;7.89;52.06;100563.97;5072426;28;20514;-79
2023/04/02 01:56:03;;;;;;;4.60;3.40;;;;;;;7.90;52.08;100578.47;5072852;28;20044;-79
2023/04/02 01:58:33;;;;;;;5.47;3.55;;;;;;;7.86;52.06;100574.25;5055192;28;20638;-79
2023/04/02 02:01:07;;;;;;;4.35;3.53;;;;;;;7.88;52.20;100575.84;5058873;28;20040;-80
2023/04/02 02:03:39;;;;;;;4.40;3.45;;;;;;;7.87;51.99;100586.88;5057629;28;20081;-80
2023/04/02 02:06:11;;;;;;;5.22;4.30;;;;;;;7.80;52.19;100594.69;5056375;28;20696;-82
2023/04/02 02:08:44;;;;;;;5.70;4.60;;;;;;;7.77;51.95;100604.94;5053125;28;20324;-81
2023/04/02 02:11:16;;;;;;;5.57;4.57;;;;;;;7.78;52.30;100612.13;5050759;28;20099;-80
2023/04/02 02:13:48;;;;;;;6.78;5.93;;;;;;;7.72;52.13;100609.91;5036187;28;20051;-80
2023/04/02 02:16:18;;;;;;;6.85;5.47;;;;;;;7.67;52.00;100623.91;5039407;28;20420;-81
2023/04/02 02:18:49;;;;;;;6.30;5.25;;;;;;;7.71;51.80;100624.50;5050522;28;20051;-80
2023/04/02 02:21:30;;;;;;;6.13;5.15;;;;;;;7.65;51.21;100627.72;5056073;28;20061;-79
2023/04/02 02:24:01;;;;;;;6.43;5.63;;;;;;;7.59;51.88;100626.38;5052676;28;20051;-81
2023/04/02 02:26:32;;;;;;;5.70;5.10;;;;;;;7.58;51.77;100635.53;5062643;28;20582;-81
2023/04/02 02:29:06;;;;;;;5.60;4.30;;;;;;;7.53;51.68;100635.00;5055329;28;20492;-81
2023/04/02 02:31:37;;;;;;;5.28;4.60;;;;;;;7.47;51.13;100647.25;5055426;28;20128;-81
2023/04/02 02:34:15;;;;;;;4.55;3.60;;;;;;;7.49;51.40;100652.56;5048463;28;20048;-81
2023/04/02 02:36:49;;;;;;;4.70;3.90;;;;;;;7.48;51.05;100645.41;5069712;22;20068;-80
2023/04/02 02:39:24;;;;;;;5.32;4.03;;;;;;;7.43;51.21;100659.38;5044556;28;20049;-80
2023/04/02 02:41:56;;;;;;;5.18;4.28;;;;;;;7.43;51.78;100662.09;5058496;28;20033;-80
2023/04/02 02:44:28;;;;;;;5.18;4.55;;;;;;;7.34;51.82;100664.66;5077905;28;21058;-81
2023/04/02 02:47:01;;;;;;;5.43;4.55;;;;;;;7.36;51.25;100658.09;5061670;28;20105;-81
2023/04/02 02:49:32;;;;;;;5.30;4.50;;;;;;;7.32;51.23;100670.22;5070663;28;20123;-81
2023/04/02 02:52:13;;;;;;;5.60;4.57;;;;;;;7.31;51.64;100673.94;5061367;28;20555;-82
2023/04/02 02:55:01;;;;;;;5.10;4.40;;;;;;;7.26;51.63;100678.88;5053403;28;20344;-80
2023/04/02 02:57:47;;;;;;;4.80;3.88;;;;;;;7.22;51.55;100701.84;5059117;28;20045;-80
2023/04/02 03:00:18;;;;;;;4.53;3.80;;;;;;;7.17;51.51;100687.72;5055697;28;20094;-80
2023/04/02 03:02:49;;;;;;;5.15;3.80;;;;;;;7.16;51.28;100691.44;5066394;28;20060;-80
2023/04/02 03:05:22;;;;;;;5.03;3.90;;;;;;;7.16;51.72;100703.19;5057323;28;20047;-80
2023/04/02 03:07:56;;;;;;;4.80;4.28;;;;;;;7.11;51.77;100699.94;5068636;28;20036;-80
2023/04/02 03:10:34;;;;;;;5.93;4.70;;;;;;;7.09;51.34;100711.94;5063637;28;20451;-80
2023/04/02 03:13:08;;;;;;;4.88;4.32;;;;;;;7.15;51.45;100720.50;5067455;28;20102;-80
2023/04/02 03:15:42;;;;;;;5.40;4.40;;;;;;;7.09;51.54;100729.13;5063064;28;20112;-80
2023/04/02 03:18:17;;;;;;;5.25;3.90;;;;;;;7.09;51.04;100723.69;5057767;28;20036;-80
2023/04/02 03:20:49;;;;;;;4.25;3.55;;;;;;;7.01;51.39;100742.44;5067179;28;20124;-80
2023/04/02 03:23:22;;;;;;;4.28;3.25;;;;;;;7.01;51.44;100741.56;5071934;28;20056;-79
2023/04/02 03:25:57;;;;;;;3.90;3.42;;;;;;;6.93;51.17;100741.28;5063893;28;20078;-79
2023/04/02 03:28:30;;;;;;;3.72;3.13;;;;;;;6.97;51.66;100750.94;5064435;28;20051;-79
2023/04/02 03:31:02;;;;;;;4.00;2.90;;;;;;;6.92;51.24;100758.59;5065578;28;20056;-80
2023/04/02 03:33:35;;;;;;;4.25;2.70;;;;;;;6.89;51.53;100756.06;5064801;28;20036;-80
2023/04/02 03:36:17;;;;;;;3.28;2.45;;;;;;;6.94;51.47;100768.34;5061988;28;20101;-80
2023/04/02 03:38:50;;;;;;;3.85;3.00;;;;;;;6.88;51.64;100773.38;5066225;28;20122;-80
2023/04/02 03:41:25;;;;;;;3.25;2.63;;;;;;;6.93;51.07;100771.22;5063662;28;20053;-80
2023/04/02 03:43:59;;;;;;;3.78;2.80;;;;;;;6.96;51.15;100790.88;5072575;28;20415;-80
2023/04/02 03:46:31;;;;;;;;;;;;;;;6.71;52.04;100802.66;5065634;28;20075;-80
2023/04/02 03:49:06;;;;;;;4.32;3.03;;;;;;;6.90;51.68;100804.94;5063571;28;19921;-80
2023/04/02 03:51:40;;;;;;;3.95;2.90;;;;;;;6.99;51.02;100809.72;5064654;28;20055;-80
2023/04/02 03:54:13;;;;;;;3.90;2.90;;;;;;;7.02;51.20;100808.63;5070309;28;20115;-79
2023/04/02 03:56:42;;;;;;;4.45;3.22;;;;;;;6.98;51.39;100823.41;5066868;28;20041;-80
2023/04/02 03:59:21;;;;;;;4.00;3.10;;;;;;;7.01;50.62;100842.25;5061354;28;20064;-80
2023/04/02 04:01:56;;;;;;;4.28;3.50;;;;;;;6.96;50.37;100842.56;5059087;28;20084;-79
2023/04/02 04:04:28;;;;;;;4.00;3.42;;;;;;;6.98;50.74;100850.63;5063893;28;20053;-80
2023/04/02 04:06:58;;;;;;;4.70;3.78;;;;;;;6.87;50.73;100853.25;5062265;28;20454;-79
2023/04/02 04:09:30;;;;;;;4.05;3.35;;;;;;;6.93;50.57;100866.44;5063234;28;20041;-79
2023/04/02 04:12:08;;;;;;;4.90;3.60;;;;;;;6.93;50.21;100861.00;5061233;28;20072;-80
2023/04/02 04:14:40;;;;;;;3.80;3.00;;;;;;;6.87;50.77;100870.44;5063473;28;20591;-81
2023/04/02 04:17:22;;;;;;;4.53;3.22;;;;;;;6.86;50.46;100867.84;5062555;28;20303;-81
2023/04/02 04:20:00;;;;;;;4.10;3.50;;;;;;;6.81;50.46;100873.59;5062794;28;20048;-81
2023/04/02 04:22:32;;;;;;;4.20;3.03;;;;;;;6.80;50.19;100882.75;5064212;28;20052;-81
2023/04/02 04:25:22;;;;;;;3.90;2.88;;;;;;;6.78;50.15;100888.28;5055573;28;20534;-81
2023/04/02 04:28:04;;;;;;;4.72;3.40;;;;;;;6.77;50.24;100889.31;5071801;28;20048;-81
2023/04/02 04:30:45;;;;;;;4.05;3.03;;;;;;;6.76;50.23;100890.28;5067747;28;20098;-79
2023/04/02 04:33:21;;;;;;;4.28;3.10;;;;;;;6.75;50.50;100910.28;5068155;28;20044;-80
2023/04/02 04:35:58;;;;;;;4.90;3.78;;;;;;;6.67;49.91;100909.94;5055503;28;20049;-81
2023/04/02 04:38:32;;;;;;;4.38;3.20;;;;;;;6.71;50.47;100918.72;5060557;28;20147;-80
2023/04/02 04:41:06;;;;;;;3.40;2.78;;;;;;;6.71;50.26;100925.03;5065656;28;20044;-79
2023/04/02 04:43:45;;;;;;;4.32;3.00;;;;;;;6.73;50.37;100925.81;5060290;28;20051;-79
2023/04/02 04:46:21;;;;;;;4.30;3.28;;;;;;;6.73;50.31;100933.97;5063527;28;20460;-79
2023/04/02 04:48:54;;;;;;;5.07;4.15;;;;;;;6.62;50.76;100942.00;5061801;28;20048;-80
2023/04/02 04:51:29;;;;;;;5.28;4.40;;;;;;;6.65;50.57;100941.78;5073006;28;20045;-81
2023/04/02 04:53:58;;;;;;;5.30;4.22;;;;;;;6.67;50.17;100950.72;5065665;28;20577;-79
2023/04/02 04:56:31;;;;;;;5.07;4.57;;;;;;;6.68;50.11;100960.63;5057983;28;20037;-80
2023/04/02 04:59:18;;;;;;;6.20;5.10;;;;;;;6.65;49.80;100962.69;5056758;28;20059;-80
2023/04/02 05:01:52;;;;;;;7.20;5.45;;;;;;;6.59;50.08;100971.28;5056754;28;20045;-80
2023/04/02 05:04:26;;;;;;;6.32;5.50;;;;;;;6.58;50.34;100974.97;5065175;28;20558;-80
2023/04/02 05:07:02;;;;;;;6.15;4.78;;;;;;;6.60;50.20;100976.59;5054937;28;20415;-80
2023/04/02 05:09:36;;;;;;;6.40;5.07;;;;;;;6.57;50.28;100978.66;5067797;28;20043;-80
2023/04/02 05:12:16;;;;;;;6.97;5.30;;;;;;;6.56;49.96;100991.38;5066990;28;20051;-81
2023/04/02 05:14:49;;;;;;;6.95;5.38;;;;;;;6.58;50.29;101004.88;5061119;28;20106;-80
2023/04/02 05:17:22;;;;;;;7.18;5.05;;;;;;;6.59;50.16;100996.63;5053967;28;20542;-80
2023/04/02 05:19:56;;;;;;;5.95;5.05;;;;;;;6.59;50.11;101007.50;5064034;28;20524;-80
2023/04/02 05:22:34;;;;;;;6.90;5.10;;;;;;;6.58;49.98;101010.31;5061088;28;20543;-81
2023/04/02 05:25:15;;;;;;;5.60;4.93;;;;;;;6.59;49.85;101021.09;5069043;28;20431;-81
2023/04/02 05:27:51;;;;;;;6.15;5.15;;;;;;;6.54;50.02;101016.91;5055045;28;20120;-79
2023/04/02 05:30:45;;;;;;;6.22;5.32;;;;;;;6.56;49.74;101034.00;5068347;28;20040;-78
2023/04/02 05:33:22;;;;;;;6.47;5.28;;;;;;;6.54;49.57;101038.66;5065208;28;20036;-79
2023/04/02 05:35:56;;;;;;;8.68;5.65;;;;;;;6.53;49.81;101050.56;5069339;28;20086;-81
2023/04/02 05:38:30;;;;;;;6.93;5.20;;;;;;;6.48;50.00;101045.41;5060706;28;20042;-81
2023/04/02 05:41:02;;;;;;;7.00;5.13;;;;;;;6.50;50.01;101042.59;5086116;28;20498;-79
2023/04/02 05:43:34;;;;;;;7.32;5.15;;;;;;;6.50;50.43;101059.78;5078839;28;20048;-79
2023/04/02 05:46:15;;;;;;;7.57;6.07;;;;;;;6.48;49.73;101061.72;5060508;28;20044;-80
2023/04/02 05:48:47;;;;;;;8.40;5.90;;;;;;;6.49;49.60;101063.47;5058766;28;20546;-79
2023/04/02 05:51:21;;;;;;;8.10;6.47;;;;;;;6.40;49.68;101078.56;5066540;28;20077;-78
2023/04/02 05:53:55;;;;;;;8.38;6.00;;;;;;;6.44;49.96;101090.09;5070723;28;20127;-79
2023/04/02 05:56:25;;;;;;;7.65;5.88;;;;;;;6.44;49.74;101100.97;5065378;28;20456;-81
2023/04/02 05:58:58;;;;;;;7.70;5.85;;;;;;;6.44;50.05;101100.97;5067482;28;20052;-79
2023/04/02 06:01:37;;;;;;;9.05;6.13;;;;;;;6.39;49.86;101116.72;5071103;28;20111;-79
2023/04/02 06:04:18;;;;;;;;;;;;;;;6.12;50.02;101119.38;5073845;28;20048;-80
2023/04/02 06:06:52;;;;;;;8.40;6.40;;;;;;;6.28;49.75;101116.56;5052583;28;20367;-80
2023/04/02 06:09:33;;;;;;;8.98;6.55;;;;;;;6.35;49.63;101126.94;5066559;28;20408;-79
2023/04/02 06:12:13;;;;;;;11.30;7.45;;;;;;;6.30;49.81;101128.19;5055481;28;20048;-80
2023/04/02 06:14:41;;;;;;;10.32;7.60;;;;;;;6.28;49.89;101139.16;5050640;28;20052;-79
2023/04/02 06:17:14;;;;;;;10.13;6.88;;;;;;;6.29;49.88;101148.19;5062285;28;20132;-79
2023/04/02 06:19:43;;;;;;;10.48;7.22;;;;;;;6.27;49.88;101151.03;5038461;28;20060;-78
2023/04/02 06:22:20;;;;;;;9.45;7.38;;;;;;;6.29;49.38;101153.59;5057787;28;20445;-80
2023/04/02 06:24:57;;;;;;;11.10;7.28;;;;;;;6.28;49.62;101158.19;5069213;28;20091;-81
2023/04/02 06:27:27;;;;;;;9.80;7.97;;;;;;;6.22;49.63;101169.44;5060052;28;20061;-81
2023/04/02 06:30:02;;;;;;;10.95;8.50;;;;;;;6.22;49.55;101163.13;5055159;28;20056;-79
2023/04/02 06:32:31;;;;;;;10.25;7.88;;;;;;;6.19;49.80;101166.94;5044201;28;20072;-79
2023/04/02 06:35:00;;;;;;;11.63;8.63;;;;;;;6.12;49.60;101172.88;5051297;28;20033;-79
2023/04/02 06:37:32;;;;;;;11.98;8.52;;;;;;;6.13;49.44;101185.47;5058902;28;20119;-81
2023/04/02 06:40:28;;;;;;;14.25;8.85;;;;;;;6.11;49.30;101192.88;5054317;28;20048;-80
2023/04/02 06:42:59;;;;;;;12.68;8.02;;;;;;;6.12;49.90;101198.19;5083298;28;20094;-81
2023/04/02 06:45:51;;;;;;;12.20;9.38;;;;;;;6.04;49.58;101200.50;5063768;28;20129;-81
2023/04/02 06:48:47;;;;;;;12.20;8.20;;;;;;;6.07;49.84;101211.19;5067653;28;20041;-80
2023/04/02 06:51:20;;;;;;;10.38;7.95;;;;;;;6.08;49.68;101210.22;5058731;28;20044;-80
2023/04/02 06:53:50;;;;;;;11.07;8.07;;;;;;;6.07;49.85;101217.50;5057206;28;20045;-80
2023/04/02 06:56:30;;;;;;;11.93;8.02;;;;;;;6.10;49.34;101230.03;5055742;28;20083;-81
2023/04/02 06:59:00;;;;;;;13.18;7.47;;;;;;;6.09;49.57;101231.00;5058674;28;20029;-81
2023/04/02 07:01:32;;;;;;;11.15;7.72;;;;;;;6.11;49.83;101237.22;5060872;28;20052;-80
2023/04/02 07:04:00;;;;;;;11.00;8.20;;;;;;;6.05;49.49;101238.47;5060294;28;20037;-80
2023/04/02 07:06:34;;;;;;;10.77;8.23;;;;;;;6.08;49.40;101240.13;5066106;28;20060;-80
2023/04/02 07:09:02;;;;;;;9.85;7.78;;;;;;;6.11;49.39;101248.09;5053480;28;20373;-81
2023/04/02 07:11:31;;;;;;;14.85;9.25;;;;;;;6.10;49.41;101259.06;5042410;28;20438;-80
2023/04/02 07:14:02;;;;;;;12.33;9.23;;;;;;;6.05;49.62;101262.03;5040917;28;20045;-80
2023/04/02 07:16:32;;;;;;;12.30;8.60;;;;;;;6.09;49.70;101269.03;5050465;28;20041;-80
2023/04/02 07:19:02;;;;;;;13.13;8.85;;;;;;;6.04;49.81;101277.47;5059915;28;20358;-81
2023/04/02 07:21:33;;;;;;;11.80;8.27;;;;;;;5.98;49.42;101277.84;5065862;28;20064;-82
2023/04/02 07:24:01;;;;;;;11.63;7.95;;;;;;;6.02;49.29;101287.59;5070405;28;20048;-81
2023/04/02 07:26:30;;;;;;;13.52;8.40;;;;;;;5.98;49.16;101286.00;5051859;28;20037;-81
2023/04/02 07:28:58;;;;;;;14.18;9.10;;;;;;;5.93;49.52;101295.41;5036813;28;20052;-79
2023/04/02 07:31:28;;;;;;;12.38;9.02;;;;;;;5.96;49.42;101293.38;5050238;28;20041;-81
2023/04/02 07:33:58;;;;;;;12.95;9.20;;;;;;;5.92;49.26;101297.25;5064416;28;20052;-81
2023/04/02 07:36:28;;;;;;;10.52;8.13;;;;;;;5.91;49.09;101303.66;5062827;28;20063;-80
2023/04/02 07:38:56;;;;;;;12.00;7.90;;;;;;;5.89;49.04;101310.13;5049155;28;20045;-80
2023/04/02 07:41:25;;;;;;;10.52;6.85;;;;;;;5.90;49.66;101315.47;5045217;28;20091;-80
2023/04/02 07:43:54;;;;;;;10.60;6.97;;;;;;;5.91;49.40;101319.06;5043766;28;20045;-80
2023/04/02 07:46:22;;;;;;;8.82;6.78;;;;;;;5.91;49.52;101330.81;5058873;28;20072;-80
2023/04/02 07:48:50;;;;;;;8.57;6.07;;;;;;;5.92;49.47;101343.44;5072510;28;20044;-81
2023/04/02 07:51:20;;;;;;;8.68;5.82;;;;;;;5.89;48.99;101342.75;5054950;28;20130;-80
2023/04/02 07:53:49;;;;;;;8.27;5.55;;;;;;;5.92;49.07;101353.44;5037688;28;20046;-80
2023/04/02 07:56:19;;;;;;;7.93;5.03;;;;;;;5.95;49.38;101353.25;5052090;28;20098;-81
2023/04/02 07:58:47;;;;;;;7.10;5.28;;;;;;;5.90;49.05;101367.09;5047769;28;20068;-80
2023/04/02 08:01:19;;;;;;;9.35;5.65;;;;;;;5.92;49.16;101365.16;5053230;28;21096;-81
2023/04/02 08:03:48;;;;;;;7.25;5.35;;;;;;;5.91;49.14;101360.69;5063833;28;20075;-81
2023/04/02 08:06:17;;;;;;;8.40;6.00;;;;;;;5.84;49.45;101369.31;5058626;28;20468;-80
2023/04/02 08:08:45;;;;;;;7.28;5.60;;;;;;;5.76;48.92;101377.94;5067343;28;20453;-80
2023/04/02 08:11:12;;;;;;;7.40;5.50;;;;;;;5.79;48.92;101382.31;5060923;28;20060;-80
2023/04/02 08:13:40;;;;;;;9.43;5.75;;;;;;;5.79;49.45;101391.31;5077988;28;20048;-80
2023/04/02 08:16:09;;;;;;;7.53;5.28;;;;;;;5.80;49.31;101389.47;5067592;28;20052;-80
2023/04/02 08:18:39;;;;;;;6.88;5.25;;;;;;;5.77;49.34;101397.81;5062979;28;20052;-81
2023/04/02 08:21:08;;;;;;;7.60;5.25;;;;;;;5.79;49.08;101407.59;5068170;28;20052;-81
2023/04/02 08:23:36;;;;;;;8.65;6.25;;;;;;;5.78;48.93;101418.56;5067493;28;20489;-81
2023/04/02 08:26:08;;;;;;;9.77;7.22;;;;;;;5.75;49.19;101419.63;5055930;28;20052;-81
2023/04/02 08:28:36;;;;;;;7.50;6.63;;;;;;;5.74;48.99;101428.72;5062456;28;20045;-81
2023/04/02 08:31:07;;;;;;;9.10;7.47;;;;;;;5.77;49.29;101439.44;5064625;28;20056;-81
2023/04/02 08:33:35;;;;;;;8.40;6.35;;;;;;;5.76;49.08;101445.81;5066549;28;20082;-81
2023/04/02 08:36:05;;;;;;;9.80;6.90;;;;;;;5.79;49.20;101445.63;5063637;28;20052;-81
2023/04/02 08:38:33;;;;;;;9.93;6.70;;;;;;;5.74;49.28;101442.31;5061348;28;20044;-80
2023/04/02 08:41:04;;;;;;;9.20;6.03;;;;;;;5.73;49.09;101448.72;5061320;28;20049;-80
2023/04/02 08:43:55;;;;;;;9.63;6.38;;;;;;;5.74;48.27;101449.59;5061964;28;20086;-81
2023/04/02 08:46:26;;;;;;;10.15;6.35;;;;;;;5.71;48.52;101457.94;5060531;28;20047;-79
2023/04/02 08:48:58;;;;;;;7.85;5.65;;;;;;;5.68;48.88;101467.13;5062058;28;20525;-79
2023/04/02 08:51:32;;;;;;;7.97;5.70;;;;;;;5.55;48.20;101466.06;5079832;28;20056;-80
2023/04/02 08:54:03;;;;;;;6.50;5.55;;;;;;;5.58;48.47;101476.75;5065660;28;20842;-81
2023/04/02 08:56:36;;;;;;;6.57;5.10;;;;;;;5.46;48.29;101480.19;5084812;28;20101;-80
2023/04/02 08:59:09;;;;;;;;;;;;;;;5.27;48.22;101483.03;5074039;28;20528;-81
2023/04/02 09:01:48;;;;;;;5.55;4.18;;;;;;;5.39;48.59;101492.31;5062392;28;19920;-81
2023/04/02 09:04:20;;;;;;;8.10;5.10;;;;;;;5.42;49.11;101494.88;5067235;28;20090;-80
2023/04/02 09:06:53;;;;;;;8.13;4.80;;;;;;;5.47;48.82;101500.91;5062236;28;20049;-80
2023/04/02 09:09:23;;;;;;;6.10;4.50;;;;;;;5.48;48.95;101503.53;5062177;28;20519;-81
2023/04/02 09:11:55;;;;;;;7.22;4.57;;;;;;;5.53;48.11;101508.72;5066170;28;20102;-81
2023/04/02 09:14:31;;;;;;;6.25;4.50;;;;;;;5.43;48.51;101502.94;5062379;28;20053;-80
2023/04/02 09:17:02;;;;;;;5.93;4.25;;;;;;;5.42;48.58;101512.03;5057707;28;20045;-81
2023/04/02 09:19:35;;;;;;;6.45;4.30;;;;;;;5.40;48.29;101508.50;5059582;28;20059;-80
2023/04/02 09:22:10;;;;;;;6.53;4.68;;;;;;;5.45;48.54;101514.59;5057554;28;20128;-82
2023/04/02 09:24:37;;;;;;;6.10;4.00;;;;;;;5.52;48.92;101517.81;5064799;28;20044;-82
2023/04/02 09:27:18;;;;;;;6.00;4.13;;;;;;;5.47;47.89;101509.94;5058675;28;20049;-80
2023/04/02 09:29:48;;;;;;;6.45;4.00;;;;;;;5.50;48.73;101523.34;5068255;28;20089;-81
2023/04/02 09:32:41;;;;;;;6.18;4.18;;;;;;;5.47;47.50;101522.63;5050732;28;20046;-80
2023/04/02 09:35:15;;;;;;;6.63;4.03;;;;;;;5.49;48.01;101531.56;5042947;28;20041;-80
2023/04/02 09:38:30;;;;;;;7.18;3.58;;;;;;;5.40;47.24;101543.81;5067043;28;20055;-81
2023/04/02 09:41:00;;;;;;;5.72;3.80;;;;;;;5.49;48.15;101558.72;5006230;28;20096;-80
2023/04/02 09:43:31;;;;;;;5.72;3.05;;;;;;;5.53;48.35;101566.63;5017524;28;20078;-81
2023/04/02 09:46:01;;;;;;;4.90;2.95;;;;;;;5.59;47.80;101581.69;5028407;28;20135;-80
2023/04/02 09:48:32;;;;;;;5.68;3.15;;;;;;;5.62;47.91;101574.22;5052695;28;20037;-79
2023/04/02 09:51:22;;;;;;;5.05;3.20;;;;;;;5.57;46.39;101584.47;5048866;28;20483;-81
2023/04/02 09:54:07;;;;;;;5.60;3.70;;;;;;;5.61;46.64;101585.19;5058714;28;20045;-80
2023/04/02 09:56:36;;;;;;;5.03;3.17;;;;;;;5.61;47.93;101587.91;5061547;28;20489;-80
2023/04/02 09:59:07;;;;;;;5.88;3.50;;;;;;;5.66;47.75;101586.69;5068506;28;20557;-80
2023/04/02 10:01:37;;;;;;;4.78;3.20;;;;;;;5.66;47.91;101592.13;5059785;28;20472;-81
2023/04/02 10:04:26;;;;;;;5.65;3.15;;;;;;;5.74;47.55;101599.84;5074768;28;20062;-81
2023/04/02 10:06:56;;;;;;;5.18;2.92;;;;;;;5.78;48.14;101598.72;5067554;28;20055;-79
2023/04/02 10:09:31;;;;;;;4.72;2.75;;;;;;;5.85;47.60;101605.56;5071213;28;20060;-80
2023/04/02 10:12:00;;;;;;;4.50;2.70;;;;;;;5.86;48.02;101614.59;5046006;28;20061;-81
2023/04/02 10:14:32;;;;;;;5.45;3.28;;;;;;;5.86;47.24;101615.47;5045248;28;20042;-81
2023/04/02 10:17:05;;;;;;;5.18;2.83;;;;;;;5.90;47.28;101610.72;5045069;28;20049;-81
2023/04/02 10:19:37;;;;;;;4.47;2.83;;;;;;;5.85;47.44;101619.13;5043943;28;20073;-81
2023/04/02 10:22:12;;;;;;;4.45;2.78;;;;;;;5.88;46.89;101628.94;5047492;28;20562;-81
2023/04/02 10:24:41;;;;;;;5.28;3.10;;;;;;;5.87;47.18;101635.38;5042541;28;20559;-79
2023/04/02 10:27:21;;;;;;;5.15;2.95;;;;;;;5.91;46.41;101642.38;5065133;28;20127;-80
2023/04/02 10:30:02;;;;;;;4.32;2.60;;;;;;;5.94;46.16;101648.50;5061704;28;20131;-80
2023/04/02 10:32:37;;;;;;;4.20;2.50;;;;;;;6.03;47.29;101653.44;5071406;28;20114;-80
2023/04/02 10:35:15;;;;;;;4.88;2.60;;;;;;;6.10;46.66;101658.53;5061753;28;20131;-81
2023/04/02 10:38:00;;;;;;;4.18;2.42;;;;;;;6.14;46.86;101663.69;5074106;28;20403;-80
2023/04/02 10:40:36;;;;;;;3.50;2.38;;;;;;;6.21;46.58;101662.38;5088184;28;20052;-80
2023/04/02 10:43:34;;;;;;;4.90;2.60;;;;;;;6.19;46.07;101677.03;5071087;28;20041;-81
2023/04/02 10:46:09;;;;;;;6.93;2.60;;;;;;;6.23;46.94;101686.75;5071034;28;20219;-81
2023/04/02 10:48:48;;;;;;;5.55;2.78;;;;;;;6.21;45.94;101692.28;5066579;28;20067;-79
2023/04/02 10:51:29;;;;;;;5.05;2.90;;;;;;;6.17;44.74;101684.38;5053046;28;20052;-79
2023/04/02 10:54:05;;;;;;;4.50;2.40;;;;;;;6.22;45.50;101706.75;5070293;28;20127;-80
2023/04/02 10:56:35;;;;;;;5.22;2.50;;;;;;;6.22;46.23;101709.47;5063516;28;20106;-80
2023/04/02 10:59:22;;;;;;;4.55;2.85;;;;;;;6.16;45.95;101717.97;5065012;28;20144;-81
2023/04/02 11:01:52;;;;;;;4.60;2.67;;;;;;;6.10;46.08;101713.75;5066880;28;20060;-81
2023/04/02 11:04:25;;;;;;;4.45;2.45;;;;;;;6.17;45.81;101709.72;5061966;28;20546;-81
2023/04/02 11:06:58;;;;;;;4.15;2.60;;;;;;;6.26;46.37;101719.22;5061236;28;20057;-80
2023/04/02 11:09:42;;;;;;;4.88;2.65;;;;;;;6.20;45.86;101731.28;5088322;28;20041;-80
2023/04/02 11:12:21;;;;;;;4.05;2.60;;;;;;;6.21;45.81;101729.44;5059200;28;20049;-80
2023/04/02 11:14:51;;;;;;;5.43;2.60;;;;;;;6.26;46.40;101739.13;5061210;28;20044;-81
2023/04/02 11:17:20;;;;;;;5.80;2.50;;;;;;;6.28;46.15;101731.72;5061360;28;20326;-80
2023/04/02 11:19:48;;;;;;;5.25;3.03;;;;;;;6.22;45.94;101745.69;5069501;28;20111;-80
2023/04/02 11:22:18;;;;;;;5.80;3.10;;;;;;;6.22;45.91;101752.94;5053389;28;20587;-79
2023/04/02 11:24:49;;;;;;;4.70;2.75;;;;;;;6.16;45.52;101751.47;5069132;28;20045;-79
2023/04/02 11:27:26;;;;;;;4.78;3.20;;;;;;;6.18;44.66;101748.66;5054475;28;20064;-79
2023/04/02 11:30:02;;;;;;;4.85;2.60;;;;;;;6.17;44.71;101750.50;5067432;28;20131;-81
2023/04/02 11:32:41;;;;;;;6.82;2.70;;;;;;;6.25;45.29;101745.50;5067282;28;20083;-80
2023/04/02 11:35:35;;;;;;;4.57;2.50;;;;;;;6.28;45.43;101758.06;5065177;28;20124;-79
2023/04/02 11:38:45;;;;;;;4.82;2.80;;;;;;;6.26;45.12;101757.28;5060525;28;20069;-79
2023/04/02 11:41:13;;;;;;;4.13;2.53;;;;;;;6.27;46.51;101767.19;5059590;28;20412;-80
2023/04/02 11:44:00;;;;;;;5.15;2.28;;;;;;;6.29;44.48;101773.38;5063138;28;20056;-79
2023/04/02 11:46:45;;;;;;;5.47;2.50;;;;;;;6.32;44.11;101773.22;5063440;28;20048;-80
2023/04/02 11:49:56;;;;;;;5.60;2.13;;;;;;;6.37;44.75;101771.13;5068642;28;20047;-79
2023/04/02 11:52:27;;;;;;;4.72;2.53;;;;;;;6.22;44.75;101766.53;5065797;28;20523;-79
2023/04/02 11:55:02;;;;;;;4.57;2.55;;;;;;;6.29;44.80;101776.09;5063894;28;20671;-80
2023/04/02 11:57:51;;;;;;;5.55;2.40;;;;;;;6.35;44.18;101775.78;5065219;28;20055;-79
2023/04/02 12:00:37;;;;;;;4.57;2.30;;;;;;;6.35;44.60;101781.22;5068011;28;20463;-80
2023/04/02 12:03:31;;;;;;;6.18;2.60;;;;;;;6.38;44.22;101784.63;5074305;28;20139;-80
2023/04/02 12:06:05;;;;;;;4.72;2.20;;;;;;;6.32;44.97;101779.56;5061722;28;20116;-79
2023/04/02 12:08:46;;;;;;;4.28;2.50;;;;;;;6.42;44.34;101788.09;5071312;23;20441;-79
2023/04/02 12:11:33;;;;;;;4.18;2.22;;;;;;;6.46;44.53;101795.09;5050581;28;20046;-81